CW2751 Weather Reports


Display with metric or nautical units.
time (UTC)temp
F
wind
direction
speed
MPH
gust
MPH
rain 1hr
in
rain 24hr
in
rain mn
in
humidity
%
barometer
mb
20200812045039 71 118 6.0 17.0 0.00 0.34 0.34 68 1024.2
20200812044548 72 85 8.0 17.0 0.00 0.34 0.34 68 1024.2
20200812044050 72 113 6.0 14.0 0.00 0.34 0.34 67 1024.1
20200812043540 72 117 7.0 16.0 0.00 0.34 0.34 67 1024.1
20200812043049 72 118 5.0 16.0 0.00 0.34 0.34 66 1024.1
20200812042555 72 89 8.0 12.0 0.00 0.34 0.34 66 1023.3
20200812042042 72 130 5.0 11.0 0.00 0.34 0.34 65 1023.3
20200812041549 73 93 5.0 11.0 0.00 0.34 0.34 63 1023.3
20200812041056 73 128 5.0 13.0 0.00 0.34 0.34 62 1023.8
20200812040541 73 93 6.0 14.0 0.00 0.34 0.34 61 1023.8
20200812040048 73 162 6.0 16.0 0.00 0.34 0.34 61 1023.8
20200812035536 73 120 6.0 13.0 0.00 0.34 0.34 59 1023.4
20200812035046 72 126 4.0 12.0 0.00 0.34 0.34 57 1023.4
20200812034554 72 103 3.0 11.0 0.00 0.34 0.34 55 1023.4
20200812034043 72 123 4.0 11.0 0.00 0.34 0.34 53 1023.1
20200812033550 72 126 3.0 11.0 0.00 0.34 0.34 51 1023.1
20200812033035 72 161 2.0 12.0 0.00 0.34 0.34 50 1022.8
20200812032543 72 128 3.0 17.0 0.00 0.34 0.34 51 1022.8
20200812032051 72 96 3.0 17.0 0.00 0.34 0.34 50 1022.8
20200812031536 71 154 5.0 14.0 0.00 0.34 0.34 49 1022.9
20200812031043 71 140 5.0 14.0 0.00 0.34 0.34 49 1022.9
20200812030551 71 123 5.0 12.0 0.00 0.34 0.34 51 1022.9
20200812030039 71 124 4.0 12.0 0.00 0.34 0.34 51 1022.4
20200812025545 71 161 4.0 12.0 0.00 0.34 0.34 51 1022.4
20200812025052 71 161 4.0 8.0 0.00 0.34 0.34 52 1022.4
20200812024537 71 182 4.0 8.0 0.00 0.34 0.34 53 1022.9
20200812024050 70 86 3.0 7.0 0.00 0.34 0.34 52 1022.0
20200812023538 69 134 3.0 7.0 0.01 0.34 0.34 56 1022.0
20200812023045 67 193 3.0 6.0 0.01 0.34 0.34 65 1022.0
20200812022551 66 179 0.0 3.0 0.01 0.34 0.34 72 1021.4
20200812022037 66 27 0.0 5.0 0.01 0.34 0.34 74 1021.4
20200812021545 65 27 0.0 7.0 0.01 0.34 0.34 75 1021.4
20200812021051 65 25 4.0 7.0 0.01 0.34 0.34 73 1022.0
20200812020537 65 326 3.0 12.0 0.01 0.34 0.34 74 1022.0
20200812020102 65 279 6.0 12.0 0.01 0.34 0.34 75 1022.0
20200812015539 65 292 3.0 14.0 0.01 0.34 0.34 76 1020.6
20200812015044 65 347 4.0 17.0 0.01 0.34 0.34 77 1020.6
20200812014535 65 72 13.0 17.0 0.01 0.34 0.34 77 1022.9
20200812014043 65 63 5.0 16.0 0.01 0.34 0.34 77 1022.9
20200812013550 64 30 9.0 18.0 0.01 0.33 0.33 79 1022.9
20200812013038 64 20 11.0 18.0 0.03 0.33 0.33 80 1021.6
20200812012544 64 30 5.0 12.0 0.15 0.33 0.33 80 1021.6
20200812012057 63 35 3.0 12.0 0.24 0.33 0.33 81 1021.6
20200812011536 63 75 7.0 20.0 0.28 0.33 0.33 82 1024.3
20200812011043 63 174 5.0 20.0 0.32 0.33 0.33 83 1023.4
20200812010550 63 79 12.0 20.0 0.33 0.33 0.33 84 1023.4
20200812010036 63 161 6.0 20.0 0.33 0.33 0.33 84 1025.0
20200812005552 63 126 13.0 20.0 0.33 0.33 0.33 83 1025.0
20200812005052 64 86 8.0 12.0 0.33 0.33 0.33 83 1025.0
20200812004539 64 1 6.0 12.0 0.33 0.33 0.33 82 1023.4
20200812004046 64 333 2.0 19.0 0.33 0.33 0.33 80 1024.3
20200812003552 64 222 9.0 19.0 0.33 0.33 0.33 78 1024.3
20200812003038 65 150 6.0 29.0 0.31 0.31 0.31 75 1022.8
20200812002546 66 233 16.0 29.0 0.19 0.19 0.19 74 1022.8
20200812002036 68 274 19.0 35.0 0.09 0.09 0.09 70 1022.8
20200812001544 70 337 18.0 37.0 0.05 0.05 0.05 65 1022.8
20200812001052 72 320 23.0 37.0 0.01 0.01 0.01 62 1023.6
20200812000540 75 344 14.0 28.0 0.00 0.00 0.00 51 1023.6
20200812000047 76 347 19.0 28.0 0.00 0.00 0.00 45 1023.6
20200811235553 77 302 16.0 28.0 0.00 0.00 0.00 41 1022.8
20200811233540 81 340 7.0 22.0 0.00 0.00 0.00 38 1022.6
20200811233047 83 298 11.0 22.0 0.00 0.00 0.00 35 1022.6
20200811232555 84 289 7.0 11.0 0.00 0.00 0.00 47 1020.4
20200811232041 84 100 3.0 12.0 0.00 0.00 0.00 47 1020.4
20200811231549 85 134 5.0 12.0 0.00 0.00 0.00 46 1020.4
20200811231035 85 157 6.0 14.0 0.00 0.00 0.00 45 1020.3
20200811230546 85 190 6.0 18.0 0.00 0.00 0.00 44 1020.3
20200811230051 86 154 7.0 18.0 0.00 0.00 0.00 43 1020.3
20200811225536 86 154 7.0 18.0 0.00 0.00 0.00 43 1020.3
20200811225042 86 166 4.0 18.0 0.00 0.00 0.00 42 1020.3
20200811224548 86 142 5.0 18.0 0.00 0.00 0.00 41 1020.3
20200811224053 87 147 9.0 21.0 0.00 0.00 0.00 40 1020.5
20200811223538 87 137 6.0 21.0 0.00 0.00 0.00 40 1020.5
20200811223050 88 154 7.0 19.0 0.00 0.00 0.00 38 1020.5
20200811222555 88 104 7.0 20.0 0.00 0.00 0.00 38 1021.0
20200811222040 89 185 6.0 20.0 0.00 0.00 0.00 36 1021.0
20200811221548 89 141 5.0 16.0 0.00 0.00 0.00 36 1021.0
20200811221054 90 155 7.0 17.0 0.00 0.00 0.00 35 1020.9
20200811220542 91 152 5.0 21.0 0.00 0.00 0.00 35 1020.9
20200811204047 89 165 6.0 17.0 0.00 0.00 0.00 39 1022.1
20200811203537 89 131 6.0 17.0 0.00 0.00 0.00 41 1022.1
20200811203041 89 130 4.0 13.0 0.00 0.00 0.00 45 1022.7
20200811202549 88 131 5.0 12.0 0.00 0.00 0.00 45 1022.7
20200811202033 87 118 6.0 12.0 0.00 0.00 0.00 45 1022.7
20200811201542 87 155 2.0 12.0 0.00 0.00 0.00 45 1022.7
20200811201047 87 127 2.0 11.0 0.00 0.00 0.00 47 1022.8
20200811200538 87 198 4.0 10.0 0.00 0.00 0.00 46 1022.8
20200811200043 87 158 4.0 10.0 0.00 0.00 0.00 46 1022.8
20200811195549 86 120 3.0 7.0 0.00 0.00 0.00 48 1023.3
20200811195053 86 155 3.0 7.0 0.00 0.00 0.00 47 1023.3
20200811194537 86 120 4.0 7.0 0.00 0.00 0.00 44 1023.4
20200811194044 86 166 2.0 12.0 0.00 0.00 0.00 45 1023.4
20200811193552 86 133 3.0 12.0 0.00 0.00 0.00 44 1023.4
20200811193036 87 164 3.0 11.0 0.00 0.00 0.00 43 1023.5
20200811192543 88 97 6.0 11.0 0.00 0.00 0.00 41 1023.5
20200811192050 88 164 4.0 11.0 0.00 0.00 0.00 42 1023.5
20200811191553 88 133 4.0 11.0 0.00 0.00 0.00 48 1023.5
20200811191039 87 127 6.0 11.0 0.00 0.00 0.00 48 1023.7
20200811190545 86 142 4.0 10.0 0.00 0.00 0.00 46 1023.7
20200811190049 85 159 4.0 9.0 0.00 0.00 0.00 47 1023.7
20200811185555 85 103 3.0 11.0 0.00 0.00 0.00 50 1023.9
20200811185041 85 144 6.0 12.0 0.00 0.00 0.00 50 1023.9
20200811184547 84 137 4.0 14.0 0.00 0.00 0.00 48 1023.9
20200811184055 84 176 7.0 14.0 0.00 0.00 0.00 48 1023.4
20200811183538 84 158 4.0 12.0 0.00 0.00 0.00 48 1023.4
20200811183044 83 124 4.0 11.0 0.00 0.00 0.00 50 1023.4
20200811182552 83 157 4.0 11.0 0.00 0.00 0.00 52 1023.5
20200811182036 82 169 4.0 11.0 0.00 0.00 0.00 52 1023.5
20200811181542 83 164 4.0 11.0 0.00 0.00 0.00 49 1023.5
20200811181050 83 198 5.0 11.0 0.00 0.00 0.00 52 1023.7
20200811180540 82 212 3.0 13.0 0.00 0.00 0.00 54 1023.7
20200811180050 82 141 5.0 13.0 0.00 0.00 0.00 52 1023.7
20200811175554 82 174 5.0 10.0 0.00 0.00 0.00 53 1023.8
20200811175042 82 155 2.0 10.0 0.00 0.00 0.00 53 1023.8
20200811174552 82 214 4.0 10.0 0.00 0.00 0.00 53 1023.8
20200811174051 81 152 4.0 10.0 0.00 0.00 0.00 55 1024.1
20200811173538 81 152 5.0 10.0 0.00 0.00 0.00 54 1024.1
20200811173046 80 166 4.0 13.0 0.00 0.00 0.00 55 1024.1
20200811172550 80 196 7.0 13.0 0.00 0.00 0.00 55 1024.2
20200811172054 79 196 4.0 13.0 0.00 0.00 0.00 56 1024.2
20200811171540 79 159 5.0 13.0 0.00 0.00 0.00 57 1024.3
20200811171045 78 198 7.0 13.0 0.00 0.00 0.00 56 1024.3
20200811170555 78 166 6.0 13.0 0.00 0.00 0.00 58 1024.3
20200811170043 78 161 5.0 12.0 0.00 0.00 0.00 59 1024.6
20200811165545 77 171 4.0 14.0 0.00 0.00 0.00 62 1024.6
20200811165049 77 121 7.0 14.0 0.00 0.00 0.00 62 1024.6
20200811164535 76 182 5.0 12.0 0.00 0.00 0.00 64 1025.1
20200811164043 75 166 5.0 14.0 0.00 0.00 0.00 65 1025.1
20200811163549 75 176 5.0 14.0 0.00 0.00 0.00 65 1025.1
20200811163056 74 190 4.0 12.0 0.00 0.00 0.00 68 1025.1
20200811162544 74 155 6.0 12.0 0.00 0.00 0.00 68 1025.3
20200811162048 73 165 5.0 10.0 0.00 0.00 0.00 69 1025.3
20200811161535 73 200 3.0 12.0 0.00 0.00 0.00 70 1025.4
20200811161044 73 185 3.0 12.0 0.00 0.00 0.00 69 1024.5
20200811160552 73 150 4.0 12.0 0.00 0.00 0.00 69 1024.5
20200811160036 72 200 3.0 12.0 0.00 0.00 0.00 70 1024.4
20200811155542 72 183 6.0 12.0 0.00 0.00 0.00 69 1024.4
20200811155053 72 193 3.0 12.0 0.00 0.00 0.00 69 1024.4
20200811154535 72 172 3.0 11.0 0.00 0.00 0.00 70 1024.3
20200811154043 72 168 4.0 11.0 0.00 0.00 0.00 69 1024.3
20200811153547 72 182 4.0 11.0 0.00 0.00 0.00 70 1024.3
20200811153053 72 159 4.0 12.0 0.00 0.00 0.00 70 1024.3
20200811152540 71 131 4.0 12.0 0.00 0.00 0.00 71 1024.1
20200811152047 71 192 6.0 12.0 0.00 0.00 0.00 71 1024.1
20200811151554 71 147 2.0 12.0 0.00 0.00 0.00 72 1024.1
20200811151040 70 141 2.0 11.0 0.00 0.00 0.00 75 1024.1
20200811150549 69 158 7.0 11.0 0.00 0.00 0.00 75 1024.1
20200811150053 69 148 3.0 11.0 0.00 0.00 0.00 77 1024.1
20200811145538 68 154 4.0 11.0 0.00 0.00 0.00 76 1024.4
20200811145046 68 193 3.0 11.0 0.00 0.00 0.00 76 1024.4
20200811144537 69 166 4.0 11.0 0.00 0.00 0.00 75 1024.7
20200811144043 69 117 4.0 12.0 0.00 0.00 0.00 75 1024.7
20200811143548 68 150 2.0 12.0 0.00 0.00 0.00 76 1024.7
20200811143036 68 195 3.0 11.0 0.00 0.00 0.00 77 1024.7
20200811142541 67 209 2.0 9.0 0.00 0.00 0.00 78 1024.7
20200811142047 67 205 2.0 11.0 0.00 0.00 0.00 77 1024.7
20200811141535 67 166 5.0 11.0 0.00 0.00 0.00 78 1024.6
20200811141043 66 181 4.0 10.0 0.00 0.00 0.00 79 1024.6
20200811140549 66 181 2.0 10.0 0.00 0.00 0.00 79 1024.6
20200811140035 66 205 3.0 10.0 0.00 0.00 0.00 80 1024.9
20200811135548 65 178 5.0 10.0 0.00 0.00 0.00 81 1024.9
20200811135051 65 183 4.0 8.0 0.00 0.00 0.00 79 1024.9
20200811134536 65 161 3.0 8.0 0.00 0.00 0.00 81 1024.9
20200811134043 65 178 2.0 8.0 0.00 0.00 0.00 80 1024.9
20200811133549 65 172 2.0 9.0 0.00 0.00 0.00 80 1024.9
20200811133035 64 190 2.0 9.0 0.00 0.00 0.00 80 1025.2
20200811132540 64 214 2.0 8.0 0.00 0.00 0.00 80 1025.2
20200811132047 64 190 1.0 8.0 0.00 0.00 0.00 80 1025.2
20200811131552 64 168 2.0 11.0 0.00 0.00 0.00 80 1025.2
20200811131039 64 185 2.0 11.0 0.00 0.00 0.00 80 1024.6
20200811130544 63 183 6.0 10.0 0.00 0.00 0.00 80 1024.6
20200811130048 63 176 4.0 11.0 0.00 0.00 0.00 81 1024.6
20200811125535 63 169 3.0 11.0 0.00 0.00 0.00 81 1024.8
20200811125042 63 185 3.0 10.0 0.00 0.00 0.00 81 1024.8
20200811124546 62 179 2.0 12.0 0.00 0.00 0.00 82 1024.8
20200811124052 62 199 3.0 12.0 0.00 0.00 0.00 82 1024.7
20200811123537 62 148 3.0 10.0 0.00 0.00 0.00 82 1024.7
20200811123042 62 158 4.0 9.0 0.00 0.00 0.00 82 1024.7
20200811122549 62 182 5.0 9.0 0.00 0.00 0.00 83 1024.6
20200811122035 62 175 4.0 10.0 0.00 0.00 0.00 84 1024.6
20200811121542 62 155 5.0 10.0 0.00 0.00 0.00 84 1024.6
20200811121047 62 195 3.0 8.0 0.00 0.00 0.00 83 1024.3
20200811120533 62 169 3.0 8.0 0.00 0.00 0.00 83 1024.3
20200811120043 62 165 2.0 7.0 0.00 0.00 0.00 83 1024.3
20200811115550 62 188 1.0 7.0 0.00 0.00 0.00 83 1024.3
20200811115036 62 154 4.0 7.0 0.00 0.00 0.00 83 1024.3
20200811114543 62 193 2.0 7.0 0.00 0.00 0.00 83 1024.3
20200811114051 62 193 1.0 8.0 0.00 0.00 0.00 83 1024.3
20200811113535 62 189 3.0 8.0 0.00 0.00 0.00 83 1024.3
20200811113040 62 217 3.0 8.0 0.00 0.00 0.00 82 1024.3
20200811112533 62 174 3.0 7.0 0.00 0.00 0.00 82 1025.0
20200811112041 63 181 2.0 8.0 0.00 0.00 0.00 82 1025.0
20200811111548 63 190 3.0 8.0 0.00 0.00 0.00 82 1025.0
20200811111033 63 199 3.0 7.0 0.00 0.00 0.00 82 1024.3
20200811110542 63 169 3.0 6.0 0.00 0.00 0.00 82 1024.3
20200811110050 63 205 3.0 6.0 0.00 0.00 0.00 82 1024.3
20200811105535 63 195 2.0 7.0 0.00 0.00 0.00 82 1024.4
20200811105043 63 188 3.0 7.0 0.00 0.00 0.00 82 1024.4
20200811104552 63 206 2.0 10.0 0.00 0.00 0.00 82 1024.4
20200811104039 63 219 4.0 10.0 0.00 0.00 0.00 82 1024.3
20200811103544 63 179 2.0 10.0 0.00 0.00 0.00 82 1024.3
20200811103051 64 199 3.0 7.0 0.00 0.00 0.00 82 1024.3
20200811102538 64 172 4.0 10.0 0.00 0.00 0.00 83 1024.2
20200811102046 64 166 4.0 10.0 0.00 0.00 0.00 83 1024.2
20200811101555 64 172 3.0 9.0 0.00 0.00 0.00 83 1024.2
20200811101039 64 202 4.0 11.0 0.00 0.00 0.00 83 1024.3
20200811100546 64 196 4.0 11.0 0.00 0.00 0.00 84 1024.3
20200811100033 64 223 4.0 8.0 0.00 0.00 0.00 84 1024.4
20200811095543 64 210 3.0 11.0 0.00 0.00 0.00 85 1024.4
20200811095052 63 181 3.0 11.0 0.00 0.00 0.00 86 1024.4
20200811094554 63 222 4.0 8.0 0.00 0.00 0.00 86 1024.4
20200811094043 63 195 4.0 10.0 0.00 0.00 0.00 86 1024.3
20200811093552 64 192 3.0 10.0 0.00 0.00 0.00 86 1024.3
20200811093033 64 195 3.0 8.0 0.00 0.00 0.00 87 1024.3
20200811092541 64 192 4.0 8.0 0.00 0.00 0.00 87 1024.3
20200811092052 64 176 4.0 8.0 0.00 0.00 0.00 87 1024.3
20200811091534 64 206 3.0 8.0 0.00 0.00 0.00 87 1024.9
20200811091041 64 195 4.0 8.0 0.00 0.00 0.00 87 1024.9
20200811090550 64 185 4.0 8.0 0.00 0.00 0.00 87 1024.9
20200811090056 64 189 4.0 9.0 0.00 0.00 0.00 87 1024.9
20200811085540 64 196 3.0 9.0 0.00 0.00 0.00 87 1024.9
20200811085049 64 200 3.0 6.0 0.00 0.00 0.00 87 1024.9
20200811084533 64 178 2.0 8.0 0.00 0.00 0.00 87 1024.6
20200811084042 64 210 4.0 8.0 0.00 0.00 0.00 86 1024.6
20200811083549 65 174 4.0 8.0 0.00 0.00 0.00 86 1024.6
20200811083034 65 190 6.0 8.0 0.00 0.00 0.00 86 1024.6
20200811082545 65 196 3.0 7.0 0.00 0.00 0.00 86 1024.6
20200811082050 65 175 2.0 7.0 0.00 0.00 0.00 86 1024.6
20200811081541 65 175 2.0 7.0 0.00 0.00 0.00 86 1024.6
20200811081048 65 190 3.0 7.0 0.00 0.00 0.00 86 1025.0
20200811080536 65 205 3.0 7.0 0.00 0.00 0.00 86 1025.0
20200811080042 65 188 1.0 6.0 0.00 0.00 0.00 86 1025.0
20200811075547 65 200 2.0 6.0 0.00 0.00 0.00 86 1024.8
20200811075054 66 185 2.0 5.0 0.00 0.00 0.00 86 1024.8
20200811074543 66 178 1.0 6.0 0.00 0.00 0.00 86 1024.8
20200811074050 66 155 1.0 6.0 0.00 0.00 0.00 86 1024.7
20200811073538 66 178 2.0 6.0 0.00 0.00 0.00 85 1024.7
20200811073046 66 179 2.0 6.0 0.00 0.00 0.00 85 1024.7
20200811072556 67 175 2.0 7.0 0.00 0.00 0.00 85 1024.9
20200811072038 67 176 3.0 8.0 0.00 0.00 0.00 85 1024.9
20200811071544 67 155 3.0 8.0 0.00 0.00 0.00 86 1024.9
20200811071053 67 172 3.0 8.0 0.00 0.00 0.00 87 1025.0
20200811070540 66 175 3.0 8.0 0.00 0.00 0.00 87 1025.0
20200811070045 66 164 3.0 8.0 0.00 0.00 0.00 87 1025.0
20200811065550 66 200 3.0 8.0 0.00 0.00 0.00 88 1025.5
20200811065037 66 181 2.0 6.0 0.00 0.00 0.00 88 1025.5
20200811064542 66 181 3.0 6.0 0.00 0.00 0.00 88 1025.5
20200811064050 66 178 2.0 6.0 0.00 0.00 0.00 88 1025.7
20200811063538 66 172 2.0 5.0 0.00 0.00 0.00 88 1025.7
20200811063045 66 159 1.0 5.0 0.00 0.00 0.00 88 1025.7
20200811062550 66 164 0.0 5.0 0.00 0.00 0.00 88 1025.4
20200811062035 67 130 1.0 5.0 0.00 0.00 0.00 87 1025.4
20200811061541 67 155 1.0 5.0 0.00 0.00 0.00 87 1025.4
20200811061047 67 183 1.0 3.0 0.00 0.00 0.00 87 1025.9
20200811060552 67 126 0.0 3.0 0.00 0.00 0.00 86 1025.9
20200811060039 67 147 1.0 3.0 0.00 0.00 0.00 86 1026.0
20200811055544 67 103 0.0 1.0 0.00 0.00 0.00 86 1026.0
20200811055049 67 102 0.0 2.0 0.00 0.00 0.00 86 1026.0
20200811054536 67 100 0.0 2.0 0.00 0.00 0.00 85 1026.3
20200811054043 68 99 0.0 3.0 0.00 0.00 0.00 85 1026.3
20200811053551 68 100 1.0 3.0 0.00 0.00 0.00 85 1026.3
20200811053038 68 103 0.0 3.0 0.00 0.00 0.00 85 1026.3
20200811052546 68 103 1.0 6.0 0.00 0.00 0.00 85 1026.3
20200811052051 68 109 2.0 6.0 0.00 0.00 0.00 84 1026.3
20200811051536 68 102 0.0 6.0 0.00 0.00 0.00 84 1026.2
20200811051045 68 100 1.0 6.0 0.00 0.00 0.00 84 1026.2
20200811050547 69 111 2.0 6.0 0.00 0.00 0.00 83 1026.2
20200811050043 69 111 2.0 7.0 0.00 0.00 0.00 84 1026.2
20200811045548 69 97 4.0 8.0 0.00 0.00 0.00 83 1026.2